sensor_id;sensor_type;location;lat;lon;timestamp;P1;durP1;ratioP1;P2;durP2;ratioP2
62413;SDS011;48453;52.322;21.058;2022-08-21T00:00:29;8.00;;;4.10;;
62413;SDS011;48453;52.322;21.058;2022-08-21T00:03:03;7.30;;;4.30;;
62413;SDS011;48453;52.322;21.058;2022-08-21T00:05:27;5.10;;;3.40;;
62413;SDS011;48453;52.322;21.058;2022-08-21T00:07:50;6.00;;;3.80;;
62413;SDS011;48453;52.322;21.058;2022-08-21T00:10:18;5.80;;;3.80;;
62413;SDS011;48453;52.322;21.058;2022-08-21T00:12:42;6.60;;;4.00;;
62413;SDS011;48453;52.322;21.058;2022-08-21T00:15:06;6.90;;;4.60;;
62413;SDS011;48453;52.322;21.058;2022-08-21T00:17:33;8.10;;;4.80;;
62413;SDS011;48453;52.322;21.058;2022-08-21T00:19:55;7.60;;;4.30;;
62413;SDS011;48453;52.322;21.058;2022-08-21T00:22:18;7.80;;;5.10;;
62413;SDS011;48453;52.322;21.058;2022-08-21T00:24:41;9.90;;;4.60;;
62413;SDS011;48453;52.322;21.058;2022-08-21T00:27:03;9.10;;;4.80;;
62413;SDS011;48453;52.322;21.058;2022-08-21T00:29:28;8.20;;;5.20;;
62413;SDS011;48453;52.322;21.058;2022-08-21T00:31:54;6.20;;;3.90;;
62413;SDS011;48453;52.322;21.058;2022-08-21T00:34:17;7.20;;;4.30;;
62413;SDS011;48453;52.322;21.058;2022-08-21T00:36:39;12.00;;;4.60;;
62413;SDS011;48453;52.322;21.058;2022-08-21T00:39:05;5.90;;;4.00;;
62413;SDS011;48453;52.322;21.058;2022-08-21T00:41:29;7.30;;;3.70;;
62413;SDS011;48453;52.322;21.058;2022-08-21T00:44:00;6.10;;;3.50;;
62413;SDS011;48453;52.322;21.058;2022-08-21T00:46:24;5.30;;;3.70;;
62413;SDS011;48453;52.322;21.058;2022-08-21T00:48:52;7.60;;;3.90;;
62413;SDS011;48453;52.322;21.058;2022-08-21T00:51:24;5.90;;;3.80;;
62413;SDS011;48453;52.322;21.058;2022-08-21T00:53:48;6.00;;;3.70;;
62413;SDS011;48453;52.322;21.058;2022-08-21T00:56:15;5.00;;;3.40;;
62413;SDS011;48453;52.322;21.058;2022-08-21T00:58:39;5.70;;;3.30;;
62413;SDS011;48453;52.322;21.058;2022-08-21T01:01:05;7.30;;;3.70;;
62413;SDS011;48453;52.322;21.058;2022-08-21T01:03:30;6.30;;;3.50;;
62413;SDS011;48453;52.322;21.058;2022-08-21T01:05:53;5.40;;;3.40;;
62413;SDS011;48453;52.322;21.058;2022-08-21T01:08:16;7.20;;;3.50;;
62413;SDS011;48453;52.322;21.058;2022-08-21T01:10:40;5.10;;;3.50;;
62413;SDS011;48453;52.322;21.058;2022-08-21T01:13:04;5.70;;;3.60;;
62413;SDS011;48453;52.322;21.058;2022-08-21T01:15:30;6.50;;;4.30;;
62413;SDS011;48453;52.322;21.058;2022-08-21T01:17:56;5.80;;;3.90;;
62413;SDS011;48453;52.322;21.058;2022-08-21T01:20:22;5.50;;;3.70;;
62413;SDS011;48453;52.322;21.058;2022-08-21T01:22:54;7.20;;;4.20;;
62413;SDS011;48453;52.322;21.058;2022-08-21T01:25:17;5.80;;;4.10;;
62413;SDS011;48453;52.322;21.058;2022-08-21T01:27:42;5.90;;;4.10;;
62413;SDS011;48453;52.322;21.058;2022-08-21T01:30:13;6.10;;;3.60;;
62413;SDS011;48453;52.322;21.058;2022-08-21T01:32:39;6.80;;;4.10;;
62413;SDS011;48453;52.322;21.058;2022-08-21T01:35:05;6.30;;;3.90;;
62413;SDS011;48453;52.322;21.058;2022-08-21T01:37:30;6.20;;;3.80;;
62413;SDS011;48453;52.322;21.058;2022-08-21T01:39:53;5.90;;;3.70;;
62413;SDS011;48453;52.322;21.058;2022-08-21T01:42:19;5.70;;;3.60;;
62413;SDS011;48453;52.322;21.058;2022-08-21T01:44:46;6.10;;;3.70;;
62413;SDS011;48453;52.322;21.058;2022-08-21T01:47:13;5.30;;;3.60;;
62413;SDS011;48453;52.322;21.058;2022-08-21T01:49:42;6.10;;;4.20;;
62413;SDS011;48453;52.322;21.058;2022-08-21T01:52:08;6.10;;;3.90;;
62413;SDS011;48453;52.322;21.058;2022-08-21T01:54:34;7.00;;;3.90;;
62413;SDS011;48453;52.322;21.058;2022-08-21T01:56:59;6.90;;;3.80;;
62413;SDS011;48453;52.322;21.058;2022-08-21T01:59:23;5.50;;;3.40;;
62413;SDS011;48453;52.322;21.058;2022-08-21T02:01:46;6.00;;;3.50;;
62413;SDS011;48453;52.322;21.058;2022-08-21T02:04:11;6.60;;;3.80;;
62413;SDS011;48453;52.322;21.058;2022-08-21T02:06:34;6.40;;;4.20;;
62413;SDS011;48453;52.322;21.058;2022-08-21T02:08:57;6.50;;;4.20;;
62413;SDS011;48453;52.322;21.058;2022-08-21T02:11:20;7.10;;;4.20;;
62413;SDS011;48453;52.322;21.058;2022-08-21T02:13:43;6.00;;;4.00;;
62413;SDS011;48453;52.322;21.058;2022-08-21T02:16:06;8.30;;;4.50;;
62413;SDS011;48453;52.322;21.058;2022-08-21T02:18:30;7.60;;;3.80;;
62413;SDS011;48453;52.322;21.058;2022-08-21T02:20:53;7.10;;;4.10;;
62413;SDS011;48453;52.322;21.058;2022-08-21T02:23:18;8.70;;;5.30;;
62413;SDS011;48453;52.322;21.058;2022-08-21T02:25:48;7.40;;;4.80;;
62413;SDS011;48453;52.322;21.058;2022-08-21T02:28:12;6.60;;;4.60;;
62413;SDS011;48453;52.322;21.058;2022-08-21T02:30:36;5.20;;;4.00;;
62413;SDS011;48453;52.322;21.058;2022-08-21T02:33:02;6.20;;;4.40;;
62413;SDS011;48453;52.322;21.058;2022-08-21T02:35:25;6.50;;;4.50;;
62413;SDS011;48453;52.322;21.058;2022-08-21T02:37:51;6.50;;;4.10;;
62413;SDS011;48453;52.322;21.058;2022-08-21T02:40:14;10.30;;;4.40;;
62413;SDS011;48453;52.322;21.058;2022-08-21T02:42:37;6.30;;;4.40;;
62413;SDS011;48453;52.322;21.058;2022-08-21T02:45:02;8.00;;;4.80;;
62413;SDS011;48453;52.322;21.058;2022-08-21T02:47:25;6.80;;;4.50;;
62413;SDS011;48453;52.322;21.058;2022-08-21T02:49:48;10.10;;;5.10;;
62413;SDS011;48453;52.322;21.058;2022-08-21T02:52:10;7.00;;;4.70;;
62413;SDS011;48453;52.322;21.058;2022-08-21T02:54:34;9.00;;;6.20;;
62413;SDS011;48453;52.322;21.058;2022-08-21T02:56:59;9.10;;;7.00;;
62413;SDS011;48453;52.322;21.058;2022-08-21T02:59:22;9.50;;;7.30;;
62413;SDS011;48453;52.322;21.058;2022-08-21T03:01:47;9.50;;;7.40;;
62413;SDS011;48453;52.322;21.058;2022-08-21T03:04:09;10.60;;;6.80;;
62413;SDS011;48453;52.322;21.058;2022-08-21T03:06:35;6.50;;;4.70;;
62413;SDS011;48453;52.322;21.058;2022-08-21T03:08:58;9.80;;;5.00;;
62413;SDS011;48453;52.322;21.058;2022-08-21T03:11:20;11.50;;;5.50;;
62413;SDS011;48453;52.322;21.058;2022-08-21T03:13:43;7.40;;;5.20;;
62413;SDS011;48453;52.322;21.058;2022-08-21T03:16:08;6.30;;;4.70;;
62413;SDS011;48453;52.322;21.058;2022-08-21T03:18:32;7.90;;;5.70;;
62413;SDS011;48453;52.322;21.058;2022-08-21T03:20:59;7.10;;;4.90;;
62413;SDS011;48453;52.322;21.058;2022-08-21T03:23:21;7.50;;;4.90;;
62413;SDS011;48453;52.322;21.058;2022-08-21T03:25:45;6.40;;;4.60;;
62413;SDS011;48453;52.322;21.058;2022-08-21T03:28:10;8.00;;;4.70;;
62413;SDS011;48453;52.322;21.058;2022-08-21T03:30:36;5.90;;;3.90;;
62413;SDS011;48453;52.322;21.058;2022-08-21T03:33:01;7.20;;;4.30;;
62413;SDS011;48453;52.322;21.058;2022-08-21T03:35:25;9.90;;;4.30;;
62413;SDS011;48453;52.322;21.058;2022-08-21T03:37:48;5.50;;;4.20;;
62413;SDS011;48453;52.322;21.058;2022-08-21T03:40:12;7.20;;;4.50;;
62413;SDS011;48453;52.322;21.058;2022-08-21T03:42:35;5.50;;;4.10;;
62413;SDS011;48453;52.322;21.058;2022-08-21T03:44:58;5.80;;;3.90;;
62413;SDS011;48453;52.322;21.058;2022-08-21T03:47:24;5.80;;;4.20;;
62413;SDS011;48453;52.322;21.058;2022-08-21T03:49:47;6.80;;;4.60;;
62413;SDS011;48453;52.322;21.058;2022-08-21T03:52:10;6.30;;;4.30;;
62413;SDS011;48453;52.322;21.058;2022-08-21T03:54:33;4.80;;;3.30;;
62413;SDS011;48453;52.322;21.058;2022-08-21T03:56:55;5.60;;;3.40;;
62413;SDS011;48453;52.322;21.058;2022-08-21T03:59:18;5.60;;;4.10;;
62413;SDS011;48453;52.322;21.058;2022-08-21T04:01:53;7.00;;;4.30;;
62413;SDS011;48453;52.322;21.058;2022-08-21T04:04:16;6.00;;;3.80;;
62413;SDS011;48453;52.322;21.058;2022-08-21T04:06:41;5.60;;;3.90;;
62413;SDS011;48453;52.322;21.058;2022-08-21T04:09:04;6.80;;;4.20;;
62413;SDS011;48453;52.322;21.058;2022-08-21T04:11:27;6.20;;;4.20;;
62413;SDS011;48453;52.322;21.058;2022-08-21T04:13:49;7.60;;;3.60;;
62413;SDS011;48453;52.322;21.058;2022-08-21T04:16:12;6.10;;;4.20;;
62413;SDS011;48453;52.322;21.058;2022-08-21T04:18:38;6.00;;;4.20;;
62413;SDS011;48453;52.322;21.058;2022-08-21T04:21:01;5.40;;;4.40;;
62413;SDS011;48453;52.322;21.058;2022-08-21T04:23:32;5.50;;;4.50;;
62413;SDS011;48453;52.322;21.058;2022-08-21T04:25:55;7.10;;;4.30;;
62413;SDS011;48453;52.322;21.058;2022-08-21T04:28:21;5.90;;;4.50;;
62413;SDS011;48453;52.322;21.058;2022-08-21T04:30:51;5.30;;;3.50;;
62413;SDS011;48453;52.322;21.058;2022-08-21T04:33:19;5.50;;;4.30;;
62413;SDS011;48453;52.322;21.058;2022-08-21T04:35:44;5.80;;;3.70;;
62413;SDS011;48453;52.322;21.058;2022-08-21T04:38:06;8.10;;;4.40;;
62413;SDS011;48453;52.322;21.058;2022-08-21T04:40:31;6.70;;;4.00;;
62413;SDS011;48453;52.322;21.058;2022-08-21T04:42:56;7.70;;;3.90;;
62413;SDS011;48453;52.322;21.058;2022-08-21T04:45:21;6.00;;;4.20;;
62413;SDS011;48453;52.322;21.058;2022-08-21T04:47:47;5.70;;;4.20;;
62413;SDS011;48453;52.322;21.058;2022-08-21T04:50:14;5.80;;;4.10;;
62413;SDS011;48453;52.322;21.058;2022-08-21T04:52:37;6.60;;;3.60;;
62413;SDS011;48453;52.322;21.058;2022-08-21T04:55:03;6.50;;;4.00;;
62413;SDS011;48453;52.322;21.058;2022-08-21T04:57:26;5.60;;;3.90;;
62413;SDS011;48453;52.322;21.058;2022-08-21T05:00:11;5.50;;;3.90;;
62413;SDS011;48453;52.322;21.058;2022-08-21T05:02:36;5.50;;;4.20;;
62413;SDS011;48453;52.322;21.058;2022-08-21T05:05:01;11.50;;;4.60;;
62413;SDS011;48453;52.322;21.058;2022-08-21T05:07:27;5.00;;;3.20;;
62413;SDS011;48453;52.322;21.058;2022-08-21T05:10:04;9.30;;;4.10;;
62413;SDS011;48453;52.322;21.058;2022-08-21T05:12:32;8.50;;;4.00;;
62413;SDS011;48453;52.322;21.058;2022-08-21T05:14:58;4.90;;;3.30;;
62413;SDS011;48453;52.322;21.058;2022-08-21T05:17:20;5.00;;;3.00;;
62413;SDS011;48453;52.322;21.058;2022-08-21T05:19:43;5.80;;;3.20;;
62413;SDS011;48453;52.322;21.058;2022-08-21T05:22:06;6.40;;;3.10;;
62413;SDS011;48453;52.322;21.058;2022-08-21T05:24:29;6.20;;;3.00;;
62413;SDS011;48453;52.322;21.058;2022-08-21T05:26:52;4.20;;;2.70;;
62413;SDS011;48453;52.322;21.058;2022-08-21T05:29:15;5.30;;;3.20;;
62413;SDS011;48453;52.322;21.058;2022-08-21T05:31:44;5.80;;;3.40;;
62413;SDS011;48453;52.322;21.058;2022-08-21T05:34:07;6.60;;;3.90;;
62413;SDS011;48453;52.322;21.058;2022-08-21T05:36:31;5.20;;;3.20;;
62413;SDS011;48453;52.322;21.058;2022-08-21T05:38:57;4.60;;;3.00;;
62413;SDS011;48453;52.322;21.058;2022-08-21T05:41:20;4.70;;;3.00;;
62413;SDS011;48453;52.322;21.058;2022-08-21T05:43:43;6.90;;;3.20;;
62413;SDS011;48453;52.322;21.058;2022-08-21T05:46:08;5.20;;;3.20;;
62413;SDS011;48453;52.322;21.058;2022-08-21T05:48:32;4.20;;;3.20;;
62413;SDS011;48453;52.322;21.058;2022-08-21T05:50:54;5.70;;;3.60;;
62413;SDS011;48453;52.322;21.058;2022-08-21T05:53:18;5.60;;;2.70;;
62413;SDS011;48453;52.322;21.058;2022-08-21T05:55:41;6.20;;;3.40;;
62413;SDS011;48453;52.322;21.058;2022-08-21T05:58:08;6.00;;;3.40;;
62413;SDS011;48453;52.322;21.058;2022-08-21T06:00:33;4.20;;;2.90;;
62413;SDS011;48453;52.322;21.058;2022-08-21T06:02:56;4.50;;;3.10;;
62413;SDS011;48453;52.322;21.058;2022-08-21T06:05:19;6.60;;;3.20;;
62413;SDS011;48453;52.322;21.058;2022-08-21T06:07:58;4.70;;;3.20;;
62413;SDS011;48453;52.322;21.058;2022-08-21T06:10:21;6.40;;;3.20;;
62413;SDS011;48453;52.322;21.058;2022-08-21T06:12:46;6.00;;;3.00;;
62413;SDS011;48453;52.322;21.058;2022-08-21T06:15:09;4.90;;;2.70;;
62413;SDS011;48453;52.322;21.058;2022-08-21T06:17:32;4.90;;;3.00;;
62413;SDS011;48453;52.322;21.058;2022-08-21T06:19:57;5.00;;;3.00;;
62413;SDS011;48453;52.322;21.058;2022-08-21T06:22:20;5.20;;;3.30;;
62413;SDS011;48453;52.322;21.058;2022-08-21T06:24:43;4.70;;;2.90;;
62413;SDS011;48453;52.322;21.058;2022-08-21T06:27:06;6.00;;;2.50;;
62413;SDS011;48453;52.322;21.058;2022-08-21T06:29:31;5.10;;;3.20;;
62413;SDS011;48453;52.322;21.058;2022-08-21T06:32:06;6.00;;;3.00;;
62413;SDS011;48453;52.322;21.058;2022-08-21T06:34:32;6.00;;;2.80;;
62413;SDS011;48453;52.322;21.058;2022-08-21T06:36:54;5.30;;;3.00;;
62413;SDS011;48453;52.322;21.058;2022-08-21T06:39:18;4.30;;;2.90;;
62413;SDS011;48453;52.322;21.058;2022-08-21T06:41:54;4.90;;;2.70;;
62413;SDS011;48453;52.322;21.058;2022-08-21T06:44:17;5.60;;;3.20;;
62413;SDS011;48453;52.322;21.058;2022-08-21T06:46:41;6.60;;;3.20;;
62413;SDS011;48453;52.322;21.058;2022-08-21T06:49:08;4.90;;;2.80;;
62413;SDS011;48453;52.322;21.058;2022-08-21T06:51:43;6.10;;;2.80;;
62413;SDS011;48453;52.322;21.058;2022-08-21T06:54:05;4.90;;;2.90;;
62413;SDS011;48453;52.322;21.058;2022-08-21T06:56:28;4.50;;;3.10;;
62413;SDS011;48453;52.322;21.058;2022-08-21T06:58:55;5.70;;;3.20;;
62413;SDS011;48453;52.322;21.058;2022-08-21T07:01:23;6.60;;;2.70;;
62413;SDS011;48453;52.322;21.058;2022-08-21T07:03:48;4.00;;;2.80;;
62413;SDS011;48453;52.322;21.058;2022-08-21T07:06:13;5.00;;;3.20;;
62413;SDS011;48453;52.322;21.058;2022-08-21T07:08:36;4.40;;;3.00;;
62413;SDS011;48453;52.322;21.058;2022-08-21T07:10:59;3.80;;;2.50;;
62413;SDS011;48453;52.322;21.058;2022-08-21T07:13:23;5.10;;;3.10;;
62413;SDS011;48453;52.322;21.058;2022-08-21T07:15:48;5.10;;;2.60;;
62413;SDS011;48453;52.322;21.058;2022-08-21T07:18:11;4.70;;;2.90;;
62413;SDS011;48453;52.322;21.058;2022-08-21T07:20:34;4.10;;;2.80;;
62413;SDS011;48453;52.322;21.058;2022-08-21T07:23:01;4.20;;;2.70;;
62413;SDS011;48453;52.322;21.058;2022-08-21T07:25:24;4.30;;;2.60;;
62413;SDS011;48453;52.322;21.058;2022-08-21T07:27:49;4.50;;;2.50;;
62413;SDS011;48453;52.322;21.058;2022-08-21T07:30:12;5.50;;;2.70;;
62413;SDS011;48453;52.322;21.058;2022-08-21T07:32:37;4.30;;;2.80;;
62413;SDS011;48453;52.322;21.058;2022-08-21T07:35:00;6.50;;;3.00;;
62413;SDS011;48453;52.322;21.058;2022-08-21T07:37:26;6.40;;;3.10;;
62413;SDS011;48453;52.322;21.058;2022-08-21T07:39:48;5.20;;;3.00;;
62413;SDS011;48453;52.322;21.058;2022-08-21T07:42:11;4.20;;;2.50;;
62413;SDS011;48453;52.322;21.058;2022-08-21T07:44:34;5.80;;;3.00;;
62413;SDS011;48453;52.322;21.058;2022-08-21T07:46:57;3.80;;;2.50;;
62413;SDS011;48453;52.322;21.058;2022-08-21T07:49:19;6.10;;;2.70;;
62413;SDS011;48453;52.322;21.058;2022-08-21T07:51:42;4.50;;;2.60;;
62413;SDS011;48453;52.322;21.058;2022-08-21T07:54:08;4.90;;;2.90;;
62413;SDS011;48453;52.322;21.058;2022-08-21T07:56:38;4.70;;;2.90;;
62413;SDS011;48453;52.322;21.058;2022-08-21T07:59:01;5.70;;;3.30;;
62413;SDS011;48453;52.322;21.058;2022-08-21T08:01:27;5.60;;;2.70;;
62413;SDS011;48453;52.322;21.058;2022-08-21T08:03:50;6.50;;;2.90;;
62413;SDS011;48453;52.322;21.058;2022-08-21T08:06:13;4.70;;;3.10;;
62413;SDS011;48453;52.322;21.058;2022-08-21T08:08:38;5.50;;;3.20;;
62413;SDS011;48453;52.322;21.058;2022-08-21T08:11:03;4.20;;;2.90;;
62413;SDS011;48453;52.322;21.058;2022-08-21T08:13:28;4.40;;;2.90;;
62413;SDS011;48453;52.322;21.058;2022-08-21T08:15:56;5.90;;;3.00;;
62413;SDS011;48453;52.322;21.058;2022-08-21T08:18:21;5.30;;;3.10;;
62413;SDS011;48453;52.322;21.058;2022-08-21T08:20:46;6.30;;;2.60;;
62413;SDS011;48453;52.322;21.058;2022-08-21T08:23:11;5.00;;;3.10;;
62413;SDS011;48453;52.322;21.058;2022-08-21T08:25:36;6.80;;;2.50;;
62413;SDS011;48453;52.322;21.058;2022-08-21T08:27:59;5.00;;;3.10;;
62413;SDS011;48453;52.322;21.058;2022-08-21T08:30:22;4.70;;;2.80;;
62413;SDS011;48453;52.322;21.058;2022-08-21T08:32:46;5.20;;;2.90;;
62413;SDS011;48453;52.322;21.058;2022-08-21T08:35:12;6.50;;;2.50;;
62413;SDS011;48453;52.322;21.058;2022-08-21T08:37:35;3.80;;;2.40;;
62413;SDS011;48453;52.322;21.058;2022-08-21T08:40:04;4.50;;;2.90;;
62413;SDS011;48453;52.322;21.058;2022-08-21T08:44:57;5.60;;;3.10;;
62413;SDS011;48453;52.322;21.058;2022-08-21T08:47:23;5.00;;;2.30;;
62413;SDS011;48453;52.322;21.058;2022-08-21T08:52:33;3.20;;;2.00;;
62413;SDS011;48453;52.322;21.058;2022-08-21T08:55:01;6.00;;;2.80;;
62413;SDS011;48453;52.322;21.058;2022-08-21T08:57:27;5.00;;;2.40;;
62413;SDS011;48453;52.322;21.058;2022-08-21T08:59:51;5.60;;;2.40;;
62413;SDS011;48453;52.322;21.058;2022-08-21T09:02:16;4.50;;;2.20;;
62413;SDS011;48453;52.322;21.058;2022-08-21T09:04:38;4.60;;;2.50;;
62413;SDS011;48453;52.322;21.058;2022-08-21T09:07:08;4.50;;;2.20;;
62413;SDS011;48453;52.322;21.058;2022-08-21T09:22:28;6.20;;;2.40;;
62413;SDS011;48453;52.322;21.058;2022-08-21T09:27:24;5.00;;;2.40;;
62413;SDS011;48453;52.322;21.058;2022-08-21T09:29:51;4.10;;;2.30;;
62413;SDS011;48453;52.322;21.058;2022-08-21T09:32:16;5.10;;;2.50;;
62413;SDS011;48453;52.322;21.058;2022-08-21T09:34:40;4.30;;;2.40;;
62413;SDS011;48453;52.322;21.058;2022-08-21T09:37:15;4.30;;;2.40;;
62413;SDS011;48453;52.322;21.058;2022-08-21T09:39:39;3.00;;;2.00;;
62413;SDS011;48453;52.322;21.058;2022-08-21T09:42:08;3.90;;;2.20;;
62413;SDS011;48453;52.322;21.058;2022-08-21T09:44:36;3.50;;;2.10;;
62413;SDS011;48453;52.322;21.058;2022-08-21T09:47:05;5.30;;;2.40;;
62413;SDS011;48453;52.322;21.058;2022-08-21T09:49:34;4.10;;;2.60;;
62413;SDS011;48453;52.322;21.058;2022-08-21T09:52:00;4.60;;;2.50;;
62413;SDS011;48453;52.322;21.058;2022-08-21T09:54:31;3.30;;;2.10;;
62413;SDS011;48453;52.322;21.058;2022-08-21T09:56:59;3.50;;;2.30;;
62413;SDS011;48453;52.322;21.058;2022-08-21T09:59:41;4.70;;;2.30;;
62413;SDS011;48453;52.322;21.058;2022-08-21T10:04:50;3.40;;;1.90;;
62413;SDS011;48453;52.322;21.058;2022-08-21T10:07:14;4.40;;;2.00;;
62413;SDS011;48453;52.322;21.058;2022-08-21T10:09:38;3.30;;;1.80;;
62413;SDS011;48453;52.322;21.058;2022-08-21T10:14:39;5.10;;;2.20;;
62413;SDS011;48453;52.322;21.058;2022-08-21T10:17:10;4.50;;;1.90;;
62413;SDS011;48453;52.322;21.058;2022-08-21T10:19:41;3.20;;;1.70;;
62413;SDS011;48453;52.322;21.058;2022-08-21T10:25:41;3.60;;;2.00;;
62413;SDS011;48453;52.322;21.058;2022-08-21T10:30:31;2.90;;;1.80;;
62413;SDS011;48453;52.322;21.058;2022-08-21T10:33:02;3.30;;;1.90;;
62413;SDS011;48453;52.322;21.058;2022-08-21T10:41:01;2.60;;;1.70;;
62413;SDS011;48453;52.322;21.058;2022-08-21T10:48:53;3.50;;;2.10;;
62413;SDS011;48453;52.322;21.058;2022-08-21T10:51:40;4.70;;;2.10;;
62413;SDS011;48453;52.322;21.058;2022-08-21T10:56:29;3.90;;;2.10;;
62413;SDS011;48453;52.322;21.058;2022-08-21T11:07:18;4.70;;;2.10;;
62413;SDS011;48453;52.322;21.058;2022-08-21T11:09:46;6.20;;;2.30;;
62413;SDS011;48453;52.322;21.058;2022-08-21T11:17:22;3.70;;;2.30;;
62413;SDS011;48453;52.322;21.058;2022-08-21T11:22:32;4.60;;;2.40;;
62413;SDS011;48453;52.322;21.058;2022-08-21T11:25:07;4.00;;;2.20;;
62413;SDS011;48453;52.322;21.058;2022-08-21T11:30:06;5.00;;;2.10;;
62413;SDS011;48453;52.322;21.058;2022-08-21T11:35:27;4.90;;;1.90;;
62413;SDS011;48453;52.322;21.058;2022-08-21T11:43:21;2.70;;;1.60;;
62413;SDS011;48453;52.322;21.058;2022-08-21T11:45:49;4.50;;;1.90;;
62413;SDS011;48453;52.322;21.058;2022-08-21T11:50:55;3.10;;;2.10;;
62413;SDS011;48453;52.322;21.058;2022-08-21T11:58:17;3.80;;;2.00;;
62413;SDS011;48453;52.322;21.058;2022-08-21T12:00:44;3.70;;;2.10;;
62413;SDS011;48453;52.322;21.058;2022-08-21T12:03:17;3.10;;;1.90;;
62413;SDS011;48453;52.322;21.058;2022-08-21T12:05:57;2.90;;;1.80;;
62413;SDS011;48453;52.322;21.058;2022-08-21T12:10:59;3.90;;;2.10;;
62413;SDS011;48453;52.322;21.058;2022-08-21T12:13:26;2.80;;;1.70;;
62413;SDS011;48453;52.322;21.058;2022-08-21T12:16:14;3.50;;;2.10;;
62413;SDS011;48453;52.322;21.058;2022-08-21T12:18:40;4.30;;;1.80;;
62413;SDS011;48453;52.322;21.058;2022-08-21T12:23:45;3.80;;;2.10;;
62413;SDS011;48453;52.322;21.058;2022-08-21T12:28:39;3.60;;;1.90;;
62413;SDS011;48453;52.322;21.058;2022-08-21T12:31:02;4.60;;;1.80;;
62413;SDS011;48453;52.322;21.058;2022-08-21T12:35:48;2.90;;;1.90;;
62413;SDS011;48453;52.322;21.058;2022-08-21T12:38:17;3.20;;;2.00;;
62413;SDS011;48453;52.322;21.058;2022-08-21T12:41:03;3.70;;;1.80;;
62413;SDS011;48453;52.322;21.058;2022-08-21T12:45:58;3.70;;;2.10;;
62413;SDS011;48453;52.322;21.058;2022-08-21T12:48:41;4.80;;;2.30;;
62413;SDS011;48453;52.322;21.058;2022-08-21T12:51:19;3.60;;;2.00;;
62413;SDS011;48453;52.322;21.058;2022-08-21T12:53:47;7.30;;;2.60;;
62413;SDS011;48453;52.322;21.058;2022-08-21T12:56:11;3.40;;;2.00;;
62413;SDS011;48453;52.322;21.058;2022-08-21T12:58:35;4.00;;;2.00;;
62413;SDS011;48453;52.322;21.058;2022-08-21T13:01:03;4.20;;;2.30;;
62413;SDS011;48453;52.322;21.058;2022-08-21T13:03:27;4.50;;;2.20;;
62413;SDS011;48453;52.322;21.058;2022-08-21T13:05:50;4.10;;;2.60;;
62413;SDS011;48453;52.322;21.058;2022-08-21T13:08:14;5.10;;;2.10;;
62413;SDS011;48453;52.322;21.058;2022-08-21T13:10:37;3.60;;;2.10;;
62413;SDS011;48453;52.322;21.058;2022-08-21T13:13:10;3.50;;;2.00;;
62413;SDS011;48453;52.322;21.058;2022-08-21T13:15:36;4.40;;;2.10;;
62413;SDS011;48453;52.322;21.058;2022-08-21T13:18:01;3.50;;;2.30;;
62413;SDS011;48453;52.322;21.058;2022-08-21T13:20:27;5.10;;;3.40;;
62413;SDS011;48453;52.322;21.058;2022-08-21T13:22:51;5.30;;;3.90;;
62413;SDS011;48453;52.322;21.058;2022-08-21T13:25:16;3.40;;;2.20;;
62413;SDS011;48453;52.322;21.058;2022-08-21T13:27:40;3.20;;;2.10;;
62413;SDS011;48453;52.322;21.058;2022-08-21T13:30:14;3.20;;;2.20;;
62413;SDS011;48453;52.322;21.058;2022-08-21T13:32:41;5.80;;;2.20;;
62413;SDS011;48453;52.322;21.058;2022-08-21T13:35:08;3.50;;;1.80;;
62413;SDS011;48453;52.322;21.058;2022-08-21T13:37:31;4.40;;;1.90;;
62413;SDS011;48453;52.322;21.058;2022-08-21T13:39:54;3.60;;;1.80;;
62413;SDS011;48453;52.322;21.058;2022-08-21T13:42:19;3.60;;;1.80;;
62413;SDS011;48453;52.322;21.058;2022-08-21T13:44:44;3.70;;;2.10;;
62413;SDS011;48453;52.322;21.058;2022-08-21T13:47:10;3.20;;;1.90;;
62413;SDS011;48453;52.322;21.058;2022-08-21T13:49:34;4.30;;;1.90;;
62413;SDS011;48453;52.322;21.058;2022-08-21T13:51:58;3.30;;;1.80;;
62413;SDS011;48453;52.322;21.058;2022-08-21T13:56:49;3.90;;;2.10;;
62413;SDS011;48453;52.322;21.058;2022-08-21T13:59:34;4.00;;;2.00;;
62413;SDS011;48453;52.322;21.058;2022-08-21T14:01:58;4.20;;;2.00;;
62413;SDS011;48453;52.322;21.058;2022-08-21T14:04:29;3.80;;;1.80;;
62413;SDS011;48453;52.322;21.058;2022-08-21T14:06:54;3.50;;;1.90;;
62413;SDS011;48453;52.322;21.058;2022-08-21T14:11:45;3.80;;;2.00;;
62413;SDS011;48453;52.322;21.058;2022-08-21T14:14:22;3.20;;;1.80;;
62413;SDS011;48453;52.322;21.058;2022-08-21T14:16:52;3.20;;;1.80;;
62413;SDS011;48453;52.322;21.058;2022-08-21T14:21:41;3.00;;;1.80;;
62413;SDS011;48453;52.322;21.058;2022-08-21T14:24:14;3.30;;;1.90;;
62413;SDS011;48453;52.322;21.058;2022-08-21T14:26:49;3.60;;;2.20;;
62413;SDS011;48453;52.322;21.058;2022-08-21T14:29:13;3.30;;;1.70;;
62413;SDS011;48453;52.322;21.058;2022-08-21T14:31:39;3.70;;;1.70;;
62413;SDS011;48453;52.322;21.058;2022-08-21T14:34:07;3.40;;;1.70;;
62413;SDS011;48453;52.322;21.058;2022-08-21T14:36:44;2.60;;;1.60;;
62413;SDS011;48453;52.322;21.058;2022-08-21T14:39:06;3.70;;;1.90;;
62413;SDS011;48453;52.322;21.058;2022-08-21T14:41:32;4.40;;;1.90;;
62413;SDS011;48453;52.322;21.058;2022-08-21T14:43:55;3.70;;;2.00;;
62413;SDS011;48453;52.322;21.058;2022-08-21T14:46:30;2.60;;;1.60;;
62413;SDS011;48453;52.322;21.058;2022-08-21T14:48:54;2.50;;;1.30;;
62413;SDS011;48453;52.322;21.058;2022-08-21T14:51:20;3.40;;;1.70;;
62413;SDS011;48453;52.322;21.058;2022-08-21T14:53:43;5.30;;;1.80;;
62413;SDS011;48453;52.322;21.058;2022-08-21T14:56:07;3.90;;;1.80;;
62413;SDS011;48453;52.322;21.058;2022-08-21T14:58:31;2.20;;;1.30;;
62413;SDS011;48453;52.322;21.058;2022-08-21T15:00:54;3.00;;;1.50;;
62413;SDS011;48453;52.322;21.058;2022-08-21T15:03:18;3.30;;;1.70;;
62413;SDS011;48453;52.322;21.058;2022-08-21T15:05:51;2.90;;;2.00;;
62413;SDS011;48453;52.322;21.058;2022-08-21T15:08:14;3.10;;;1.90;;
62413;SDS011;48453;52.322;21.058;2022-08-21T15:10:37;3.40;;;1.70;;
62413;SDS011;48453;52.322;21.058;2022-08-21T15:13:22;3.90;;;1.90;;
62413;SDS011;48453;52.322;21.058;2022-08-21T15:15:45;4.00;;;1.70;;
62413;SDS011;48453;52.322;21.058;2022-08-21T15:18:10;3.50;;;1.80;;
62413;SDS011;48453;52.322;21.058;2022-08-21T15:20:33;4.40;;;1.70;;
62413;SDS011;48453;52.322;21.058;2022-08-21T15:22:56;7.80;;;2.00;;
62413;SDS011;48453;52.322;21.058;2022-08-21T15:25:19;3.00;;;1.70;;
62413;SDS011;48453;52.322;21.058;2022-08-21T15:27:42;4.60;;;1.90;;
62413;SDS011;48453;52.322;21.058;2022-08-21T15:30:04;4.40;;;2.10;;
62413;SDS011;48453;52.322;21.058;2022-08-21T15:32:28;3.30;;;1.70;;
62413;SDS011;48453;52.322;21.058;2022-08-21T15:34:54;4.90;;;2.20;;
62413;SDS011;48453;52.322;21.058;2022-08-21T15:37:17;4.30;;;2.40;;
62413;SDS011;48453;52.322;21.058;2022-08-21T15:39:40;6.50;;;2.20;;
62413;SDS011;48453;52.322;21.058;2022-08-21T15:42:03;3.00;;;1.90;;
62413;SDS011;48453;52.322;21.058;2022-08-21T15:44:32;4.90;;;1.90;;
62413;SDS011;48453;52.322;21.058;2022-08-21T15:46:55;5.20;;;2.00;;
62413;SDS011;48453;52.322;21.058;2022-08-21T15:49:19;3.30;;;2.20;;
62413;SDS011;48453;52.322;21.058;2022-08-21T15:51:41;3.60;;;2.00;;
62413;SDS011;48453;52.322;21.058;2022-08-21T15:54:05;3.80;;;2.00;;
62413;SDS011;48453;52.322;21.058;2022-08-21T15:56:33;4.60;;;2.20;;
62413;SDS011;48453;52.322;21.058;2022-08-21T15:58:59;4.10;;;2.50;;
62413;SDS011;48453;52.322;21.058;2022-08-21T16:01:27;5.00;;;2.10;;
62413;SDS011;48453;52.322;21.058;2022-08-21T16:03:57;4.40;;;2.30;;